Главная страница
METAR-TAF:

METAR-TAF

Аэропорты :

Бейрут, Ливан

широта: 33-49N, долгота: 035-29E, высота над уровнем моря: 29 м

METAR: отсутствует

Время: 19:52 (16:52 UTC)

Прогноз

Эта сводка был подготовлена 6 часа и 52 минут назад, в 10:00 UTC
Прогноз действительный с 25-го 12 UTC до 26-го 18 UTC
Ветер 13 Узел от западный-юго-западный
Видимость: 5000 м
Рассеянная облачность на высоте 2600 фута
дымка
изменения
С 25-го 21 UTC до 25-го 24 UTC
Ветер 5 Узел переменных направлений
изменения
С 26-го 09 UTC до 26-го 12 UTC
Ветер 10 Узел от западный-юго-западный с порывами до 20 Узел
Отдельные облака на высоте 2600 фута

TAF: OLBA 251000Z 2512/2618 24013KT 5000 BR BKN026 BECMG 2521/2524 VRB05KT BECMG 2609/2612 25010G20KT SCT026

Метеонаблюдения и прогнозы для более 4000 аэропортов (сводки METAR и TAF).

Имеющиеся станции представлены на карте желтыми и красными точками.

Чтобы увидеть название станции, наведите на нее мышь.

Затем щелкните, чтобы увидеть метеонаблюдения и метеопрогнозы.

Управление картой: чтобы увеличить масштаб, щелкните зеленые кнопки с черным крестиком; чтобы уменьшить масштаб, щелкните зеленую кнопку с тире; для просмотра соседних карт щелкайте зеленые стрелки.


METAR-TAF: